createdAt,value
2023-05-22T00:00:06.935Z,1.37
2023-05-22T00:05:22.854Z,1.38
2023-05-22T00:10:39.567Z,1.47
2023-05-22T00:15:53.524Z,1.52
2023-05-22T01:03:21.732Z,1.42
2023-05-22T01:08:36.725Z,1.37
2023-05-22T01:13:45.262Z,1.39
2023-05-22T01:19:00.873Z,1.32
2023-05-22T01:24:16.692Z,1.4
2023-05-22T01:29:32.468Z,1.42
2023-05-22T01:34:50.533Z,1.49
2023-05-22T01:40:03.218Z,1.52
2023-05-22T01:45:17.109Z,1.41
2023-05-22T01:50:33.279Z,1.4
2023-05-22T01:55:49.764Z,1.44
2023-05-22T02:01:05.975Z,1.43
2023-05-22T02:06:21.776Z,1.5
2023-05-22T02:11:37.225Z,1.42
2023-05-22T02:16:53.855Z,1.53
2023-05-22T02:22:09.215Z,1.29
2023-05-22T02:27:23.827Z,1.31
2023-05-22T02:32:39.184Z,1.43
2023-05-22T02:37:53.899Z,1.45
2023-05-22T02:43:08.734Z,1.36
2023-05-22T02:48:23.629Z,1.5
2023-05-22T02:53:38.642Z,1.39
2023-05-22T02:58:54.400Z,1.53
2023-05-22T03:04:10.679Z,1.55
2023-05-22T03:09:26.077Z,1.53
2023-05-22T03:14:42.945Z,1.46
2023-05-22T03:18:52.353Z,1.54
2023-05-22T03:24:07.627Z,1.55
2023-05-22T03:29:22.414Z,1.5
2023-05-22T03:34:37.128Z,1.49
2023-05-22T03:39:52.897Z,1.65
2023-05-22T03:45:08.723Z,1.38
2023-05-22T03:50:23.286Z,1.51
2023-05-22T03:55:39.174Z,1.5
2023-05-22T04:00:55.184Z,1.64
2023-05-22T04:06:10.988Z,1.45
2023-05-22T04:11:27.473Z,1.42
2023-05-22T04:16:41.583Z,1.43
2023-05-22T04:21:56.247Z,1.38
2023-05-22T04:27:11.032Z,1.5
2023-05-22T04:32:26.728Z,1.41
2023-05-22T04:37:41.259Z,1.46
2023-05-22T04:42:56.680Z,1.42
2023-05-22T04:48:11.183Z,1.44
2023-05-22T04:53:27.690Z,1.45
2023-05-22T04:58:43.419Z,1.45
2023-05-22T05:03:58.710Z,1.53
2023-05-22T05:09:14.953Z,1.51
2023-05-22T05:14:29.873Z,1.57
2023-05-22T05:19:44.433Z,1.62
2023-05-22T05:25:00.724Z,1.51
2023-05-22T05:51:19.374Z,1.69
2023-05-22T05:56:35.327Z,1.8
2023-05-22T06:01:51.288Z,1.76
2023-05-22T06:07:05.984Z,1.96
2023-05-22T06:12:20.793Z,1.92
2023-05-22T06:17:37.281Z,2.07
2023-05-22T06:22:52.097Z,2.03
2023-05-22T06:28:08.109Z,1.88
2023-05-22T06:33:25.097Z,2.05
2023-05-22T06:38:39.993Z,1.94
2023-05-22T06:43:55.696Z,1.94
2023-05-22T06:49:11.606Z,1.99
2023-05-22T06:54:27.258Z,1.98
2023-05-22T06:59:43.057Z,2
2023-05-22T07:04:57.908Z,1.96
2023-05-22T07:10:14.420Z,1.96
2023-05-22T07:15:29.869Z,1.94
2023-05-22T07:20:44.560Z,1.9
2023-05-22T07:26:00.760Z,1.84
2023-05-22T07:31:16.407Z,1.81
2023-05-22T07:36:31.089Z,1.89
2023-05-22T07:41:46.480Z,1.82
2023-05-22T07:47:01.835Z,1.89
2023-05-22T07:52:16.854Z,2.04
2023-05-22T07:57:33.279Z,1.9
2023-05-22T08:02:48.811Z,1.91
2023-05-22T08:08:03.915Z,1.83
2023-05-22T08:13:21.766Z,1.78
2023-05-22T08:18:36.477Z,1.79
2023-05-22T08:23:50.711Z,1.78
2023-05-22T08:29:06.815Z,1.7
2023-05-22T08:34:22.811Z,1.6
2023-05-22T08:39:38.626Z,1.62
2023-05-22T08:44:53.984Z,1.76
2023-05-22T08:50:09.637Z,1.59
2023-05-22T08:55:26.681Z,1.68
2023-05-22T09:00:43.609Z,1.63
2023-05-22T09:05:57.670Z,1.76
2023-05-22T09:11:12.942Z,1.74
2023-05-22T09:16:28.237Z,1.68
2023-05-22T09:21:44.032Z,1.69
2023-05-22T09:26:59.439Z,1.7
2023-05-22T09:32:13.990Z,1.74
2023-05-22T09:37:30.095Z,1.74
2023-05-22T09:42:44.730Z,1.68
2023-05-22T09:47:59.266Z,1.86
2023-05-22T10:35:27.596Z,1.93
2023-05-22T10:40:36.726Z,1.92
2023-05-22T10:45:52.510Z,1.75
2023-05-22T10:51:08.111Z,1.89
2023-05-22T10:56:26.124Z,1.49
2023-05-22T11:01:39.433Z,1.73
2023-05-22T11:06:55.729Z,1.83
2023-05-22T11:12:10.797Z,1.76
2023-05-22T11:17:26.613Z,1.88
2023-05-22T11:22:42.312Z,1.89
2023-05-22T11:27:56.807Z,2.07
2023-05-22T11:33:11.835Z,1.95
2023-05-22T11:38:26.300Z,1.88
2023-05-22T11:43:42.969Z,1.9
2023-05-22T11:48:58.578Z,1.95
2023-05-22T11:54:14.508Z,1.9
2023-05-22T11:59:30.220Z,1.87
2023-05-22T12:04:45.132Z,1.82
2023-05-22T12:10:00.720Z,1.76
2023-05-22T12:15:17.047Z,1.81
2023-05-22T12:20:33.302Z,1.83
2023-05-22T12:25:49.350Z,1.76
2023-05-22T12:31:04.402Z,1.69
2023-05-22T12:36:19.839Z,1.99
2023-05-22T12:41:36.012Z,2.06
2023-05-22T12:46:51.523Z,2.23
2023-05-22T12:52:07.088Z,2.15
2023-05-22T12:57:23.127Z,2.1
2023-05-22T13:02:38.928Z,2
2023-05-22T13:07:54.973Z,2.21
2023-05-22T13:13:10.697Z,2.09
2023-05-22T13:18:25.611Z,2.11
2023-05-22T13:23:41.378Z,2.1
2023-05-22T13:29:00.794Z,2.02
2023-05-22T13:34:16.147Z,2.06
2023-05-22T13:39:30.890Z,2.1
2023-05-22T13:44:47.345Z,2.07
2023-05-22T13:50:02.796Z,2.02
2023-05-22T13:55:18.973Z,2.02
2023-05-22T14:00:34.364Z,2.16
2023-05-22T14:05:51.158Z,1.96
2023-05-22T14:11:05.922Z,1.99
2023-05-22T14:16:21.590Z,1.93
2023-05-22T14:21:37.849Z,2.08
2023-05-22T14:26:54.397Z,2
2023-05-22T14:32:09.538Z,1.93
2023-05-22T14:37:25.923Z,1.92
2023-05-22T15:24:56.538Z,1.75
2023-05-22T15:30:05.201Z,1.7
2023-05-22T15:35:19.323Z,1.61
2023-05-22T15:40:34.914Z,1.61
2023-05-22T15:45:49.801Z,1.65
2023-05-22T15:51:05.273Z,1.66
2023-05-22T15:56:21.032Z,1.58
2023-05-22T16:01:38.179Z,1.27
2023-05-22T16:06:54.381Z,1.09
2023-05-22T16:12:09.050Z,1.02
2023-05-22T16:17:24.715Z,1.04
2023-05-22T16:22:49.368Z,1.06
2023-05-22T16:27:55.185Z,1.05
2023-05-22T16:33:11.138Z,1.19
2023-05-22T16:38:27.768Z,1.11
2023-05-22T16:43:43.369Z,1.18
2023-05-22T16:48:58.496Z,1.2
2023-05-22T16:54:14.884Z,1.18
2023-05-22T16:59:31.386Z,1.23
2023-05-22T17:04:45.742Z,1.1
2023-05-22T17:10:02.283Z,1.28
2023-05-22T17:15:16.815Z,1.57
2023-05-22T17:20:33.261Z,1.4
2023-05-22T17:25:48.240Z,0.98
2023-05-22T17:31:03.366Z,1.46
2023-05-22T17:36:21.121Z,1.46
2023-05-22T17:41:36.219Z,1.44
2023-05-22T17:46:50.986Z,1.34
2023-05-22T17:52:06.689Z,1.37
2023-05-22T17:57:23.199Z,1.31
2023-05-22T18:02:38.642Z,1.3
2023-05-22T18:07:53.916Z,1.34
2023-05-22T18:13:10.754Z,1.36
2023-05-22T18:18:27.280Z,1.34
2023-05-22T18:23:42.414Z,1.49
2023-05-22T18:28:57.823Z,1.42
2023-05-22T18:34:12.793Z,1.33
2023-05-22T18:39:27.892Z,1.34
2023-05-22T19:26:57.559Z,1.41
2023-05-22T19:32:06.086Z,1.47
2023-05-22T19:37:21.862Z,1.52
2023-05-22T19:42:37.339Z,1.52
2023-05-22T19:47:53.781Z,1.56
2023-05-22T19:53:09.836Z,1.65
2023-05-22T19:58:25.655Z,1.66
2023-05-22T20:03:41.329Z,1.65
2023-05-22T20:08:56.856Z,1.65
2023-05-22T20:14:11.546Z,1.69
2023-05-22T20:19:33.278Z,1.65
2023-05-22T20:24:46.800Z,1.5
2023-05-22T20:30:02.189Z,1.58
2023-05-22T20:35:17.223Z,1.62
2023-05-22T20:40:33.267Z,1.62
2023-05-22T20:45:48.950Z,1.58
2023-05-22T20:51:03.740Z,1.64
2023-05-22T20:56:19.286Z,1.39
2023-05-22T21:01:35.903Z,1.28
2023-05-22T21:06:50.898Z,1.26
2023-05-22T21:12:05.680Z,1.26
2023-05-22T21:17:20.593Z,1.19
2023-05-22T21:22:37.057Z,1.11
2023-05-22T21:27:53.583Z,1.13
2023-05-22T21:33:08.940Z,1.16
2023-05-22T21:38:24.312Z,1.07
2023-05-22T21:43:41.119Z,1.01
2023-05-22T21:48:56.559Z,1.06
2023-05-22T21:54:12.781Z,1.05
2023-05-22T21:59:27.751Z,1.03
2023-05-22T22:04:43.191Z,1.12
2023-05-22T22:09:59.588Z,1.11
2023-05-22T22:15:15.165Z,1.1
2023-05-22T22:20:46.008Z,1.12
2023-05-22T22:25:46.877Z,1.11
2023-05-22T22:31:01.734Z,1.09
2023-05-22T22:36:17.940Z,1.18
2023-05-22T22:41:33.065Z,1.08
2023-05-22T23:29:04.242Z,1.1
2023-05-22T23:34:12.127Z,1.12
2023-05-22T23:39:27.944Z,1.1
2023-05-22T23:44:43.415Z,1.18
2023-05-22T23:49:59.276Z,1.14
2023-05-22T23:55:13.897Z,1.13
